sensor_id;sensor_type;location;lat;lon;timestamp;P1;durP1;ratioP1;P2;durP2;ratioP2
12437;SDS011;6283;51.330;12.374;2023-02-15T00:00:15;28.40;;;17.17;;
12437;SDS011;6283;51.330;12.374;2023-02-15T00:02:41;31.23;;;17.23;;
12437;SDS011;6283;51.330;12.374;2023-02-15T00:05:07;31.27;;;17.07;;
12437;SDS011;6283;51.330;12.374;2023-02-15T00:07:33;30.60;;;16.50;;
12437;SDS011;6283;51.330;12.374;2023-02-15T00:09:59;30.87;;;17.43;;
12437;SDS011;6283;51.330;12.374;2023-02-15T00:12:25;32.20;;;17.37;;
12437;SDS011;6283;51.330;12.374;2023-02-15T00:14:50;32.83;;;18.20;;
12437;SDS011;6283;51.330;12.374;2023-02-15T00:17:16;30.80;;;16.57;;
12437;SDS011;6283;51.330;12.374;2023-02-15T00:19:42;27.73;;;15.80;;
12437;SDS011;6283;51.330;12.374;2023-02-15T00:22:08;31.00;;;16.57;;
12437;SDS011;6283;51.330;12.374;2023-02-15T00:24:34;26.87;;;15.37;;
12437;SDS011;6283;51.330;12.374;2023-02-15T00:26:59;27.30;;;16.67;;
12437;SDS011;6283;51.330;12.374;2023-02-15T00:29:25;27.03;;;15.93;;
12437;SDS011;6283;51.330;12.374;2023-02-15T00:31:51;29.53;;;16.40;;
12437;SDS011;6283;51.330;12.374;2023-02-15T00:36:44;30.33;;;16.77;;
12437;SDS011;6283;51.330;12.374;2023-02-15T00:39:11;25.87;;;15.47;;
12437;SDS011;6283;51.330;12.374;2023-02-15T00:41:36;33.50;;;15.60;;
12437;SDS011;6283;51.330;12.374;2023-02-15T00:44:02;32.10;;;16.73;;
12437;SDS011;6283;51.330;12.374;2023-02-15T00:46:28;27.60;;;15.77;;
12437;SDS011;6283;51.330;12.374;2023-02-15T00:48:54;25.60;;;15.97;;
12437;SDS011;6283;51.330;12.374;2023-02-15T00:51:20;25.40;;;15.23;;
12437;SDS011;6283;51.330;12.374;2023-02-15T00:53:46;25.40;;;15.03;;
12437;SDS011;6283;51.330;12.374;2023-02-15T00:56:12;22.37;;;14.47;;
12437;SDS011;6283;51.330;12.374;2023-02-15T00:58:38;29.50;;;15.97;;
12437;SDS011;6283;51.330;12.374;2023-02-15T01:01:04;25.50;;;14.13;;
12437;SDS011;6283;51.330;12.374;2023-02-15T01:03:32;25.23;;;14.20;;
12437;SDS011;6283;51.330;12.374;2023-02-15T01:05:59;22.93;;;13.87;;
12437;SDS011;6283;51.330;12.374;2023-02-15T01:08:25;21.67;;;13.67;;
12437;SDS011;6283;51.330;12.374;2023-02-15T01:10:50;23.53;;;14.77;;
12437;SDS011;6283;51.330;12.374;2023-02-15T01:13:16;25.87;;;13.70;;
12437;SDS011;6283;51.330;12.374;2023-02-15T01:15:42;28.40;;;13.93;;
12437;SDS011;6283;51.330;12.374;2023-02-15T01:18:09;24.77;;;13.47;;
12437;SDS011;6283;51.330;12.374;2023-02-15T01:20:36;22.03;;;13.73;;
12437;SDS011;6283;51.330;12.374;2023-02-15T01:23:04;25.80;;;14.20;;
12437;SDS011;6283;51.330;12.374;2023-02-15T01:25:32;25.83;;;13.37;;
12437;SDS011;6283;51.330;12.374;2023-02-15T01:27:58;22.73;;;13.33;;
12437;SDS011;6283;51.330;12.374;2023-02-15T01:30:24;23.57;;;13.07;;
12437;SDS011;6283;51.330;12.374;2023-02-15T01:32:49;22.17;;;12.80;;
12437;SDS011;6283;51.330;12.374;2023-02-15T01:35:15;23.97;;;13.40;;
12437;SDS011;6283;51.330;12.374;2023-02-15T01:37:40;22.43;;;13.13;;
12437;SDS011;6283;51.330;12.374;2023-02-15T01:40:07;24.97;;;13.53;;
12437;SDS011;6283;51.330;12.374;2023-02-15T01:42:37;24.00;;;13.07;;
12437;SDS011;6283;51.330;12.374;2023-02-15T01:45:03;18.90;;;12.50;;
12437;SDS011;6283;51.330;12.374;2023-02-15T01:47:49;21.73;;;12.50;;
12437;SDS011;6283;51.330;12.374;2023-02-15T01:50:31;19.87;;;12.10;;
12437;SDS011;6283;51.330;12.374;2023-02-15T01:55:29;18.63;;;11.90;;
12437;SDS011;6283;51.330;12.374;2023-02-15T01:57:59;20.97;;;12.50;;
12437;SDS011;6283;51.330;12.374;2023-02-15T02:00:25;23.67;;;13.07;;
12437;SDS011;6283;51.330;12.374;2023-02-15T02:02:52;21.27;;;12.97;;
12437;SDS011;6283;51.330;12.374;2023-02-15T02:05:20;23.57;;;12.33;;
12437;SDS011;6283;51.330;12.374;2023-02-15T02:07:46;21.30;;;12.13;;
12437;SDS011;6283;51.330;12.374;2023-02-15T02:10:15;19.10;;;11.77;;
12437;SDS011;6283;51.330;12.374;2023-02-15T02:12:44;21.23;;;12.13;;
12437;SDS011;6283;51.330;12.374;2023-02-15T02:15:11;19.73;;;12.47;;
12437;SDS011;6283;51.330;12.374;2023-02-15T02:23:48;19.67;;;12.00;;
12437;SDS011;6283;51.330;12.374;2023-02-15T02:35:15;19.93;;;11.53;;
12437;SDS011;6283;51.330;12.374;2023-02-15T02:43:26;18.83;;;11.70;;
12437;SDS011;6283;51.330;12.374;2023-02-15T02:45:59;19.43;;;11.80;;
12437;SDS011;6283;51.330;12.374;2023-02-15T02:48:38;20.47;;;11.73;;
12437;SDS011;6283;51.330;12.374;2023-02-15T02:51:04;21.20;;;12.27;;
12437;SDS011;6283;51.330;12.374;2023-02-15T02:53:30;18.47;;;11.03;;
12437;SDS011;6283;51.330;12.374;2023-02-15T02:56:06;20.87;;;12.00;;
12437;SDS011;6283;51.330;12.374;2023-02-15T02:59:04;20.30;;;11.93;;
12437;SDS011;6283;51.330;12.374;2023-02-15T03:01:46;19.87;;;11.40;;
12437;SDS011;6283;51.330;12.374;2023-02-15T03:04:20;19.03;;;10.87;;
12437;SDS011;6283;51.330;12.374;2023-02-15T03:07:11;19.53;;;10.97;;
12437;SDS011;6283;51.330;12.374;2023-02-15T03:09:48;17.53;;;11.30;;
12437;SDS011;6283;51.330;12.374;2023-02-15T03:12:18;18.03;;;10.30;;
12437;SDS011;6283;51.330;12.374;2023-02-15T03:14:47;18.53;;;12.20;;
12437;SDS011;6283;51.330;12.374;2023-02-15T03:17:17;18.23;;;11.17;;
12437;SDS011;6283;51.330;12.374;2023-02-15T03:19:47;19.07;;;11.07;;
12437;SDS011;6283;51.330;12.374;2023-02-15T03:22:17;19.97;;;10.70;;
12437;SDS011;6283;51.330;12.374;2023-02-15T03:27:20;15.87;;;10.80;;
12437;SDS011;6283;51.330;12.374;2023-02-15T03:29:52;17.73;;;10.60;;
12437;SDS011;6283;51.330;12.374;2023-02-15T03:32:20;18.87;;;10.20;;
12437;SDS011;6283;51.330;12.374;2023-02-15T03:34:47;18.87;;;11.27;;
12437;SDS011;6283;51.330;12.374;2023-02-15T03:37:15;17.43;;;10.70;;
12437;SDS011;6283;51.330;12.374;2023-02-15T03:39:51;16.80;;;10.97;;
12437;SDS011;6283;51.330;12.374;2023-02-15T03:42:45;16.80;;;9.87;;
12437;SDS011;6283;51.330;12.374;2023-02-15T03:45:17;115.80;;;19.27;;
12437;SDS011;6283;51.330;12.374;2023-02-15T03:47:49;17.53;;;9.47;;
12437;SDS011;6283;51.330;12.374;2023-02-15T03:53:05;18.80;;;10.10;;
12437;SDS011;6283;51.330;12.374;2023-02-15T03:55:34;16.10;;;9.97;;
12437;SDS011;6283;51.330;12.374;2023-02-15T03:58:01;17.87;;;9.47;;
12437;SDS011;6283;51.330;12.374;2023-02-15T04:00:58;15.67;;;9.60;;
12437;SDS011;6283;51.330;12.374;2023-02-15T04:06:20;15.50;;;10.07;;
12437;SDS011;6283;51.330;12.374;2023-02-15T04:08:45;16.60;;;10.00;;
12437;SDS011;6283;51.330;12.374;2023-02-15T04:11:30;16.17;;;9.57;;
12437;SDS011;6283;51.330;12.374;2023-02-15T04:13:56;16.57;;;9.97;;
12437;SDS011;6283;51.330;12.374;2023-02-15T04:16:22;16.57;;;10.23;;
12437;SDS011;6283;51.330;12.374;2023-02-15T04:18:48;15.37;;;9.57;;
12437;SDS011;6283;51.330;12.374;2023-02-15T04:21:32;17.03;;;9.77;;
12437;SDS011;6283;51.330;12.374;2023-02-15T04:24:17;15.90;;;9.63;;
12437;SDS011;6283;51.330;12.374;2023-02-15T04:27:01;15.77;;;9.47;;
12437;SDS011;6283;51.330;12.374;2023-02-15T04:29:28;19.13;;;10.23;;
12437;SDS011;6283;51.330;12.374;2023-02-15T04:31:54;13.37;;;8.70;;
12437;SDS011;6283;51.330;12.374;2023-02-15T04:34:22;15.17;;;9.67;;
12437;SDS011;6283;51.330;12.374;2023-02-15T04:36:48;20.17;;;10.73;;
12437;SDS011;6283;51.330;12.374;2023-02-15T04:39:15;18.37;;;11.10;;
12437;SDS011;6283;51.330;12.374;2023-02-15T04:41:41;16.27;;;9.30;;
12437;SDS011;6283;51.330;12.374;2023-02-15T04:44:07;13.63;;;8.37;;
12437;SDS011;6283;51.330;12.374;2023-02-15T04:46:33;14.87;;;8.97;;
12437;SDS011;6283;51.330;12.374;2023-02-15T04:48:58;16.40;;;9.20;;
12437;SDS011;6283;51.330;12.374;2023-02-15T04:51:24;18.00;;;9.37;;
12437;SDS011;6283;51.330;12.374;2023-02-15T04:53:50;14.87;;;8.80;;
12437;SDS011;6283;51.330;12.374;2023-02-15T04:56:17;16.47;;;9.43;;
12437;SDS011;6283;51.330;12.374;2023-02-15T04:58:43;15.13;;;8.70;;
12437;SDS011;6283;51.330;12.374;2023-02-15T05:01:09;12.73;;;8.27;;
12437;SDS011;6283;51.330;12.374;2023-02-15T05:03:35;12.70;;;8.37;;
12437;SDS011;6283;51.330;12.374;2023-02-15T05:06:02;13.70;;;8.90;;
12437;SDS011;6283;51.330;12.374;2023-02-15T05:08:28;15.03;;;9.20;;
12437;SDS011;6283;51.330;12.374;2023-02-15T05:10:54;13.37;;;8.00;;
12437;SDS011;6283;51.330;12.374;2023-02-15T05:13:19;15.70;;;8.50;;
12437;SDS011;6283;51.330;12.374;2023-02-15T05:15:48;15.73;;;8.80;;
12437;SDS011;6283;51.330;12.374;2023-02-15T05:18:16;14.07;;;8.57;;
12437;SDS011;6283;51.330;12.374;2023-02-15T05:20:43;12.83;;;8.50;;
12437;SDS011;6283;51.330;12.374;2023-02-15T05:23:09;15.17;;;8.60;;
12437;SDS011;6283;51.330;12.374;2023-02-15T05:25:35;11.53;;;8.20;;
12437;SDS011;6283;51.330;12.374;2023-02-15T05:28:20;14.77;;;8.10;;
12437;SDS011;6283;51.330;12.374;2023-02-15T05:30:49;12.80;;;8.07;;
12437;SDS011;6283;51.330;12.374;2023-02-15T05:33:23;14.33;;;8.33;;
12437;SDS011;6283;51.330;12.374;2023-02-15T05:35:49;14.70;;;8.63;;
12437;SDS011;6283;51.330;12.374;2023-02-15T05:38:15;14.63;;;7.80;;
12437;SDS011;6283;51.330;12.374;2023-02-15T05:40:41;13.03;;;8.33;;
12437;SDS011;6283;51.330;12.374;2023-02-15T05:43:07;13.10;;;8.20;;
12437;SDS011;6283;51.330;12.374;2023-02-15T05:45:32;13.03;;;8.30;;
12437;SDS011;6283;51.330;12.374;2023-02-15T05:47:58;13.70;;;8.73;;
12437;SDS011;6283;51.330;12.374;2023-02-15T05:50:24;15.30;;;9.13;;
12437;SDS011;6283;51.330;12.374;2023-02-15T05:52:50;14.67;;;8.00;;
12437;SDS011;6283;51.330;12.374;2023-02-15T05:55:16;14.47;;;9.10;;
12437;SDS011;6283;51.330;12.374;2023-02-15T05:57:42;12.27;;;8.50;;
12437;SDS011;6283;51.330;12.374;2023-02-15T06:00:07;13.20;;;8.50;;
12437;SDS011;6283;51.330;12.374;2023-02-15T06:02:35;15.40;;;8.63;;
12437;SDS011;6283;51.330;12.374;2023-02-15T06:05:01;13.67;;;8.60;;
12437;SDS011;6283;51.330;12.374;2023-02-15T06:07:27;17.30;;;9.50;;
12437;SDS011;6283;51.330;12.374;2023-02-15T06:09:52;17.97;;;9.57;;
12437;SDS011;6283;51.330;12.374;2023-02-15T06:12:18;14.83;;;9.37;;
12437;SDS011;6283;51.330;12.374;2023-02-15T06:14:43;13.87;;;9.07;;
12437;SDS011;6283;51.330;12.374;2023-02-15T06:17:09;16.73;;;9.37;;
12437;SDS011;6283;51.330;12.374;2023-02-15T06:19:34;15.87;;;8.60;;
12437;SDS011;6283;51.330;12.374;2023-02-15T06:22:00;16.10;;;9.80;;
12437;SDS011;6283;51.330;12.374;2023-02-15T06:24:26;13.60;;;9.00;;
12437;SDS011;6283;51.330;12.374;2023-02-15T06:26:51;15.17;;;8.77;;
12437;SDS011;6283;51.330;12.374;2023-02-15T06:29:17;13.97;;;8.90;;
12437;SDS011;6283;51.330;12.374;2023-02-15T06:31:42;11.83;;;8.40;;
12437;SDS011;6283;51.330;12.374;2023-02-15T06:34:08;15.00;;;9.23;;
12437;SDS011;6283;51.330;12.374;2023-02-15T06:36:34;17.90;;;9.07;;
12437;SDS011;6283;51.330;12.374;2023-02-15T06:39:00;15.20;;;8.20;;
12437;SDS011;6283;51.330;12.374;2023-02-15T06:41:27;15.87;;;9.33;;
12437;SDS011;6283;51.330;12.374;2023-02-15T06:43:53;15.23;;;8.33;;
12437;SDS011;6283;51.330;12.374;2023-02-15T06:46:18;14.97;;;8.50;;
12437;SDS011;6283;51.330;12.374;2023-02-15T06:48:44;14.13;;;8.23;;
12437;SDS011;6283;51.330;12.374;2023-02-15T06:51:09;11.93;;;8.57;;
12437;SDS011;6283;51.330;12.374;2023-02-15T06:53:35;10.73;;;7.93;;
12437;SDS011;6283;51.330;12.374;2023-02-15T06:56:01;14.33;;;7.87;;
12437;SDS011;6283;51.330;12.374;2023-02-15T06:58:33;13.20;;;8.33;;
12437;SDS011;6283;51.330;12.374;2023-02-15T07:01:06;12.83;;;8.10;;
12437;SDS011;6283;51.330;12.374;2023-02-15T07:03:33;11.93;;;8.03;;
12437;SDS011;6283;51.330;12.374;2023-02-15T07:06:00;11.07;;;7.80;;
12437;SDS011;6283;51.330;12.374;2023-02-15T07:08:27;12.83;;;7.87;;
12437;SDS011;6283;51.330;12.374;2023-02-15T07:10:53;12.20;;;7.73;;
12437;SDS011;6283;51.330;12.374;2023-02-15T07:13:20;12.27;;;7.37;;
12437;SDS011;6283;51.330;12.374;2023-02-15T07:15:46;13.83;;;7.43;;
12437;SDS011;6283;51.330;12.374;2023-02-15T07:18:12;13.17;;;8.00;;
12437;SDS011;6283;51.330;12.374;2023-02-15T07:20:38;11.07;;;7.20;;
12437;SDS011;6283;51.330;12.374;2023-02-15T07:23:06;17.00;;;7.90;;
12437;SDS011;6283;51.330;12.374;2023-02-15T07:25:33;12.10;;;7.63;;
12437;SDS011;6283;51.330;12.374;2023-02-15T07:28:00;10.10;;;6.87;;
12437;SDS011;6283;51.330;12.374;2023-02-15T07:30:27;13.80;;;7.77;;
12437;SDS011;6283;51.330;12.374;2023-02-15T07:32:59;11.10;;;7.57;;
12437;SDS011;6283;51.330;12.374;2023-02-15T07:35:46;12.43;;;7.50;;
12437;SDS011;6283;51.330;12.374;2023-02-15T07:38:13;12.60;;;7.43;;
12437;SDS011;6283;51.330;12.374;2023-02-15T07:40:39;12.90;;;7.47;;
12437;SDS011;6283;51.330;12.374;2023-02-15T07:43:04;10.63;;;7.10;;
12437;SDS011;6283;51.330;12.374;2023-02-15T07:45:30;12.17;;;7.50;;
12437;SDS011;6283;51.330;12.374;2023-02-15T07:47:56;8.60;;;6.07;;
12437;SDS011;6283;51.330;12.374;2023-02-15T07:50:21;11.47;;;6.97;;
12437;SDS011;6283;51.330;12.374;2023-02-15T07:52:47;13.40;;;8.60;;
12437;SDS011;6283;51.330;12.374;2023-02-15T07:55:12;10.73;;;7.17;;
12437;SDS011;6283;51.330;12.374;2023-02-15T07:57:42;10.03;;;6.73;;
12437;SDS011;6283;51.330;12.374;2023-02-15T08:00:10;12.90;;;7.97;;
12437;SDS011;6283;51.330;12.374;2023-02-15T08:02:38;9.53;;;6.83;;
12437;SDS011;6283;51.330;12.374;2023-02-15T08:05:04;10.70;;;6.60;;
12437;SDS011;6283;51.330;12.374;2023-02-15T08:07:30;10.70;;;6.83;;
12437;SDS011;6283;51.330;12.374;2023-02-15T08:09:56;8.13;;;6.10;;
12437;SDS011;6283;51.330;12.374;2023-02-15T08:12:21;9.07;;;5.93;;
12437;SDS011;6283;51.330;12.374;2023-02-15T08:14:47;7.73;;;5.97;;
12437;SDS011;6283;51.330;12.374;2023-02-15T08:17:12;12.53;;;6.60;;
12437;SDS011;6283;51.330;12.374;2023-02-15T08:19:38;10.07;;;6.47;;
12437;SDS011;6283;51.330;12.374;2023-02-15T08:22:04;14.23;;;6.33;;
12437;SDS011;6283;51.330;12.374;2023-02-15T08:24:33;12.23;;;7.27;;
12437;SDS011;6283;51.330;12.374;2023-02-15T08:27:02;10.77;;;6.97;;
12437;SDS011;6283;51.330;12.374;2023-02-15T08:29:29;11.70;;;6.17;;
12437;SDS011;6283;51.330;12.374;2023-02-15T08:31:56;10.40;;;6.77;;
12437;SDS011;6283;51.330;12.374;2023-02-15T08:34:28;9.60;;;6.20;;
12437;SDS011;6283;51.330;12.374;2023-02-15T08:36:55;9.47;;;6.50;;
12437;SDS011;6283;51.330;12.374;2023-02-15T08:39:21;7.37;;;6.07;;
12437;SDS011;6283;51.330;12.374;2023-02-15T08:41:47;8.93;;;6.10;;
12437;SDS011;6283;51.330;12.374;2023-02-15T08:44:17;8.00;;;5.90;;
12437;SDS011;6283;51.330;12.374;2023-02-15T08:46:44;8.20;;;5.17;;
12437;SDS011;6283;51.330;12.374;2023-02-15T08:49:13;9.83;;;6.23;;
12437;SDS011;6283;51.330;12.374;2023-02-15T08:51:44;7.80;;;5.07;;
12437;SDS011;6283;51.330;12.374;2023-02-15T08:54:12;8.73;;;5.67;;
12437;SDS011;6283;51.330;12.374;2023-02-15T08:56:40;6.60;;;5.20;;
12437;SDS011;6283;51.330;12.374;2023-02-15T08:59:07;8.37;;;5.10;;
12437;SDS011;6283;51.330;12.374;2023-02-15T09:01:44;7.37;;;5.30;;
12437;SDS011;6283;51.330;12.374;2023-02-15T09:04:11;6.17;;;4.80;;
12437;SDS011;6283;51.330;12.374;2023-02-15T09:06:38;10.20;;;5.70;;
12437;SDS011;6283;51.330;12.374;2023-02-15T09:09:05;10.10;;;5.27;;
12437;SDS011;6283;51.330;12.374;2023-02-15T09:11:36;9.30;;;5.73;;
12437;SDS011;6283;51.330;12.374;2023-02-15T09:14:11;7.97;;;4.83;;
12437;SDS011;6283;51.330;12.374;2023-02-15T09:16:45;9.03;;;5.53;;
12437;SDS011;6283;51.330;12.374;2023-02-15T09:19:14;7.47;;;4.80;;
12437;SDS011;6283;51.330;12.374;2023-02-15T09:21:40;6.63;;;4.83;;
12437;SDS011;6283;51.330;12.374;2023-02-15T09:24:07;6.90;;;5.43;;
12437;SDS011;6283;51.330;12.374;2023-02-15T09:26:36;10.37;;;4.83;;
12437;SDS011;6283;51.330;12.374;2023-02-15T09:29:05;6.40;;;4.83;;
12437;SDS011;6283;51.330;12.374;2023-02-15T09:31:32;6.47;;;4.70;;
12437;SDS011;6283;51.330;12.374;2023-02-15T09:34:01;7.33;;;4.83;;
12437;SDS011;6283;51.330;12.374;2023-02-15T09:58:32;7.43;;;4.60;;
12437;SDS011;6283;51.330;12.374;2023-02-15T10:03:33;4.60;;;3.90;;
12437;SDS011;6283;51.330;12.374;2023-02-15T10:23:31;7.00;;;4.87;;
12437;SDS011;6283;51.330;12.374;2023-02-15T10:28:29;6.47;;;5.20;;
12437;SDS011;6283;51.330;12.374;2023-02-15T10:42:18;6.13;;;4.57;;
12437;SDS011;6283;51.330;12.374;2023-02-15T10:47:39;8.40;;;5.37;;
12437;SDS011;6283;51.330;12.374;2023-02-15T11:00:46;10.53;;;5.00;;
12437;SDS011;6283;51.330;12.374;2023-02-15T11:03:26;6.67;;;4.73;;
12437;SDS011;6283;51.330;12.374;2023-02-15T11:06:07;5.77;;;4.53;;
12437;SDS011;6283;51.330;12.374;2023-02-15T11:08:39;5.27;;;4.13;;
12437;SDS011;6283;51.330;12.374;2023-02-15T11:11:11;8.67;;;4.63;;
12437;SDS011;6283;51.330;12.374;2023-02-15T11:13:46;5.70;;;4.43;;
12437;SDS011;6283;51.330;12.374;2023-02-15T11:16:34;6.40;;;4.50;;
12437;SDS011;6283;51.330;12.374;2023-02-15T11:19:10;7.20;;;4.73;;
12437;SDS011;6283;51.330;12.374;2023-02-15T11:21:43;5.90;;;4.20;;
12437;SDS011;6283;51.330;12.374;2023-02-15T11:24:20;6.17;;;4.47;;
12437;SDS011;6283;51.330;12.374;2023-02-15T11:26:50;9.27;;;5.07;;
12437;SDS011;6283;51.330;12.374;2023-02-15T11:34:50;7.37;;;4.80;;
12437;SDS011;6283;51.330;12.374;2023-02-15T11:37:33;5.93;;;4.90;;
12437;SDS011;6283;51.330;12.374;2023-02-15T11:40:34;6.57;;;5.23;;
12437;SDS011;6283;51.330;12.374;2023-02-15T11:43:10;8.43;;;4.97;;
12437;SDS011;6283;51.330;12.374;2023-02-15T11:45:41;8.77;;;5.10;;
12437;SDS011;6283;51.330;12.374;2023-02-15T11:48:10;6.57;;;5.37;;
12437;SDS011;6283;51.330;12.374;2023-02-15T11:50:37;5.40;;;4.57;;
12437;SDS011;6283;51.330;12.374;2023-02-15T11:53:05;10.27;;;5.10;;
12437;SDS011;6283;51.330;12.374;2023-02-15T11:55:41;5.23;;;4.43;;
12437;SDS011;6283;51.330;12.374;2023-02-15T11:58:23;9.13;;;5.07;;
12437;SDS011;6283;51.330;12.374;2023-02-15T12:01:09;6.40;;;4.37;;
12437;SDS011;6283;51.330;12.374;2023-02-15T12:04:06;7.40;;;4.57;;
12437;SDS011;6283;51.330;12.374;2023-02-15T12:06:57;7.07;;;4.80;;
12437;SDS011;6283;51.330;12.374;2023-02-15T12:09:36;7.57;;;5.00;;
12437;SDS011;6283;51.330;12.374;2023-02-15T12:14:57;5.20;;;4.50;;
12437;SDS011;6283;51.330;12.374;2023-02-15T12:17:25;8.93;;;5.40;;
12437;SDS011;6283;51.330;12.374;2023-02-15T12:19:55;11.10;;;4.93;;
12437;SDS011;6283;51.330;12.374;2023-02-15T12:22:26;8.07;;;5.00;;
12437;SDS011;6283;51.330;12.374;2023-02-15T12:24:55;7.13;;;4.70;;
12437;SDS011;6283;51.330;12.374;2023-02-15T12:27:25;8.03;;;4.63;;
12437;SDS011;6283;51.330;12.374;2023-02-15T12:29:57;6.32;;;4.88;;
12437;SDS011;6283;51.330;12.374;2023-02-15T12:32:35;8.73;;;4.93;;
12437;SDS011;6283;51.330;12.374;2023-02-15T12:35:13;7.35;;;5.00;;
12437;SDS011;6283;51.330;12.374;2023-02-15T12:37:55;7.90;;;4.93;;
12437;SDS011;6283;51.330;12.374;2023-02-15T12:40:31;6.25;;;5.45;;
12437;SDS011;6283;51.330;12.374;2023-02-15T12:42:59;5.53;;;4.95;;
12437;SDS011;6283;51.330;12.374;2023-02-15T12:50:45;6.63;;;4.43;;
12437;SDS011;6283;51.330;12.374;2023-02-15T12:55:58;7.68;;;4.95;;
12437;SDS011;6283;51.330;12.374;2023-02-15T12:58:25;5.53;;;4.28;;
12437;SDS011;6283;51.330;12.374;2023-02-15T13:03:33;4.95;;;4.18;;
12437;SDS011;6283;51.330;12.374;2023-02-15T13:05:59;6.03;;;4.45;;
12437;SDS011;6283;51.330;12.374;2023-02-15T13:08:28;4.45;;;3.90;;
12437;SDS011;6283;51.330;12.374;2023-02-15T13:11:00;4.93;;;4.30;;
12437;SDS011;6283;51.330;12.374;2023-02-15T13:13:33;5.55;;;3.85;;
12437;SDS011;6283;51.330;12.374;2023-02-15T13:16:07;4.55;;;4.15;;
12437;SDS011;6283;51.330;12.374;2023-02-15T13:18:38;4.68;;;4.15;;
12437;SDS011;6283;51.330;12.374;2023-02-15T13:21:18;4.97;;;4.10;;
12437;SDS011;6283;51.330;12.374;2023-02-15T13:23:46;5.00;;;3.72;;
12437;SDS011;6283;51.330;12.374;2023-02-15T13:26:19;4.47;;;3.47;;
12437;SDS011;6283;51.330;12.374;2023-02-15T13:28:48;3.55;;;3.25;;
12437;SDS011;6283;51.330;12.374;2023-02-15T13:31:18;4.43;;;3.38;;
12437;SDS011;6283;51.330;12.374;2023-02-15T13:33:46;3.53;;;3.15;;
12437;SDS011;6283;51.330;12.374;2023-02-15T13:41:31;3.97;;;3.15;;
12437;SDS011;6283;51.330;12.374;2023-02-15T13:44:03;4.13;;;3.33;;
12437;SDS011;6283;51.330;12.374;2023-02-15T13:52:18;5.82;;;3.47;;
12437;SDS011;6283;51.330;12.374;2023-02-15T13:54:52;4.18;;;3.35;;
12437;SDS011;6283;51.330;12.374;2023-02-15T14:00:03;3.85;;;3.50;;
12437;SDS011;6283;51.330;12.374;2023-02-15T14:11:20;3.50;;;3.20;;
12437;SDS011;6283;51.330;12.374;2023-02-15T14:28:02;3.60;;;3.30;;
12437;SDS011;6283;51.330;12.374;2023-02-15T14:30:44;4.22;;;3.50;;
12437;SDS011;6283;51.330;12.374;2023-02-15T14:36:03;5.63;;;3.38;;
12437;SDS011;6283;51.330;12.374;2023-02-15T14:46:50;4.72;;;3.60;;
12437;SDS011;6283;51.330;12.374;2023-02-15T14:49:22;4.35;;;3.33;;
12437;SDS011;6283;51.330;12.374;2023-02-15T14:51:56;4.45;;;2.92;;
12437;SDS011;6283;51.330;12.374;2023-02-15T15:07:59;3.22;;;2.92;;
12437;SDS011;6283;51.330;12.374;2023-02-15T15:13:34;5.03;;;3.70;;
12437;SDS011;6283;51.330;12.374;2023-02-15T15:15:56;3.95;;;3.50;;
12437;SDS011;6283;51.330;12.374;2023-02-15T15:18:47;3.47;;;3.00;;
12437;SDS011;6283;51.330;12.374;2023-02-15T15:24:59;6.43;;;3.80;;
12437;SDS011;6283;51.330;12.374;2023-02-15T15:27:45;10.20;;;4.30;;
12437;SDS011;6283;51.330;12.374;2023-02-15T15:35:23;3.40;;;3.10;;
12437;SDS011;6283;51.330;12.374;2023-02-15T15:41:17;8.55;;;4.68;;
12437;SDS011;6283;51.330;12.374;2023-02-15T15:49:12;5.53;;;3.47;;
12437;SDS011;6283;51.330;12.374;2023-02-15T15:51:41;9.07;;;3.95;;
12437;SDS011;6283;51.330;12.374;2023-02-15T15:54:12;4.60;;;3.65;;
12437;SDS011;6283;51.330;12.374;2023-02-15T15:56:44;4.03;;;3.70;;
12437;SDS011;6283;51.330;12.374;2023-02-15T15:59:21;4.32;;;3.50;;
12437;SDS011;6283;51.330;12.374;2023-02-15T16:01:49;3.30;;;3.00;;
12437;SDS011;6283;51.330;12.374;2023-02-15T16:04:26;5.22;;;3.53;;
12437;SDS011;6283;51.330;12.374;2023-02-15T16:07:41;4.60;;;3.92;;
12437;SDS011;6283;51.330;12.374;2023-02-15T16:09:57;4.78;;;3.67;;
12437;SDS011;6283;51.330;12.374;2023-02-15T16:12:25;4.93;;;3.38;;
12437;SDS011;6283;51.330;12.374;2023-02-15T16:14:53;4.80;;;3.67;;
12437;SDS011;6283;51.330;12.374;2023-02-15T16:17:20;4.53;;;4.07;;
12437;SDS011;6283;51.330;12.374;2023-02-15T16:19:51;5.18;;;4.30;;
12437;SDS011;6283;51.330;12.374;2023-02-15T16:22:22;5.60;;;4.30;;
12437;SDS011;6283;51.330;12.374;2023-02-15T16:27:39;4.85;;;4.20;;
12437;SDS011;6283;51.330;12.374;2023-02-15T16:35:33;5.23;;;3.90;;
12437;SDS011;6283;51.330;12.374;2023-02-15T16:38:00;21.13;;;13.00;;
12437;SDS011;6283;51.330;12.374;2023-02-15T16:40:28;7.60;;;5.27;;
12437;SDS011;6283;51.330;12.374;2023-02-15T16:43:10;6.87;;;4.53;;
12437;SDS011;6283;51.330;12.374;2023-02-15T16:45:40;4.90;;;4.37;;
12437;SDS011;6283;51.330;12.374;2023-02-15T16:48:08;5.07;;;4.00;;
12437;SDS011;6283;51.330;12.374;2023-02-15T16:50:39;5.73;;;4.87;;
12437;SDS011;6283;51.330;12.374;2023-02-15T16:53:14;5.87;;;4.47;;
12437;SDS011;6283;51.330;12.374;2023-02-15T16:55:45;6.33;;;4.60;;
12437;SDS011;6283;51.330;12.374;2023-02-15T16:58:16;5.10;;;4.07;;
12437;SDS011;6283;51.330;12.374;2023-02-15T17:00:44;7.00;;;5.10;;
12437;SDS011;6283;51.330;12.374;2023-02-15T17:10:41;9.97;;;6.00;;
12437;SDS011;6283;51.330;12.374;2023-02-15T17:13:12;5.67;;;4.97;;
12437;SDS011;6283;51.330;12.374;2023-02-15T17:16:25;7.80;;;5.07;;
12437;SDS011;6283;51.330;12.374;2023-02-15T17:18:51;6.97;;;4.80;;
12437;SDS011;6283;51.330;12.374;2023-02-15T17:21:19;6.97;;;4.87;;
12437;SDS011;6283;51.330;12.374;2023-02-15T17:23:49;5.03;;;4.20;;
12437;SDS011;6283;51.330;12.374;2023-02-15T17:28:52;8.53;;;4.70;;
12437;SDS011;6283;51.330;12.374;2023-02-15T17:31:28;7.53;;;4.63;;
12437;SDS011;6283;51.330;12.374;2023-02-15T17:33:56;7.37;;;5.20;;
12437;SDS011;6283;51.330;12.374;2023-02-15T17:36:24;6.27;;;4.40;;
12437;SDS011;6283;51.330;12.374;2023-02-15T17:41:23;16.67;;;9.97;;
12437;SDS011;6283;51.330;12.374;2023-02-15T17:43:50;10.17;;;8.23;;
12437;SDS011;6283;51.330;12.374;2023-02-15T17:46:15;11.40;;;7.53;;
12437;SDS011;6283;51.330;12.374;2023-02-15T17:48:45;12.70;;;6.77;;
12437;SDS011;6283;51.330;12.374;2023-02-15T17:51:12;11.30;;;7.23;;
12437;SDS011;6283;51.330;12.374;2023-02-15T17:53:39;8.83;;;6.93;;
12437;SDS011;6283;51.330;12.374;2023-02-15T17:56:26;9.40;;;6.83;;
12437;SDS011;6283;51.330;12.374;2023-02-15T17:58:51;10.30;;;6.97;;
12437;SDS011;6283;51.330;12.374;2023-02-15T18:01:17;13.07;;;7.90;;
12437;SDS011;6283;51.330;12.374;2023-02-15T18:04:03;10.73;;;7.53;;
12437;SDS011;6283;51.330;12.374;2023-02-15T18:06:49;7.93;;;6.70;;
12437;SDS011;6283;51.330;12.374;2023-02-15T18:09:33;10.97;;;6.37;;
12437;SDS011;6283;51.330;12.374;2023-02-15T18:12:18;7.57;;;6.10;;
12437;SDS011;6283;51.330;12.374;2023-02-15T18:14:44;11.50;;;7.43;;
12437;SDS011;6283;51.330;12.374;2023-02-15T18:17:11;10.23;;;7.17;;
12437;SDS011;6283;51.330;12.374;2023-02-15T18:19:38;8.97;;;7.10;;
12437;SDS011;6283;51.330;12.374;2023-02-15T18:22:12;12.53;;;7.23;;
12437;SDS011;6283;51.330;12.374;2023-02-15T18:24:40;12.43;;;7.53;;
12437;SDS011;6283;51.330;12.374;2023-02-15T18:27:07;9.80;;;6.90;;
12437;SDS011;6283;51.330;12.374;2023-02-15T18:29:35;8.97;;;6.83;;
12437;SDS011;6283;51.330;12.374;2023-02-15T18:32:00;9.43;;;7.30;;
12437;SDS011;6283;51.330;12.374;2023-02-15T18:34:31;9.00;;;7.23;;
12437;SDS011;6283;51.330;12.374;2023-02-15T18:37:00;10.80;;;7.73;;